Time;durP1;ratioP1;P1;durP2;ratioP2;P2;SDS_P1;SDS_P2;PMS_P1;PMS_P2;Temp;Humidity;BMP_temperature;BMP_pressure;BME280_temperature;BME280_humidity;BME280_pressure;Samples;Min_cycle;Max_cycle;Signal;HPM_P1;HPM_P2
2023/04/19 02:13:20;;;;;;;1999.90;999.90;;;;;;;;;;6209861;22;21178;-71
2023/04/19 02:16:06;;;;;;;1999.90;999.90;;;;;;;;;;6213870;23;20377;-72
2023/04/19 02:18:52;;;;;;;1999.90;999.90;;;;;;;;;;6215236;23;20213;-71
2023/04/19 02:21:36;;;;;;;1999.90;999.90;;;;;;;;;;6215595;23;20169;-72
2023/04/19 02:24:21;;;;;;;1999.90;999.90;;;;;;;;;;6215183;23;20201;-72
2023/04/19 02:27:06;;;;;;;1999.90;999.90;;;;;;;;;;6215739;23;20184;-71
2023/04/19 02:29:52;;;;;;;1999.90;999.90;;;;;;;;;;6215588;23;20505;-69
2023/04/19 02:32:37;;;;;;;1999.90;999.90;;;;;;;;;;6215709;23;20521;-71
2023/04/19 02:35:22;;;;;;;1999.90;999.90;;;;;;;;;;6215755;23;20275;-68
2023/04/19 02:38:07;;;;;;;1999.90;999.90;;;;;;;;;;6216009;23;20252;-71
2023/04/19 02:40:52;;;;;;;1999.90;999.90;;;;;;;;;;6215492;23;20165;-71
2023/04/19 02:43:37;;;;;;;1999.90;999.90;;;;;;;;;;6215360;23;20679;-70
2023/04/19 02:46:23;;;;;;;1999.90;999.90;;;;;;;;;;6215560;23;20162;-69
2023/04/19 02:49:09;;;;;;;1999.90;999.90;;;;;;;;;;6217371;23;20464;-69
2023/04/19 02:51:54;;;;;;;1999.90;999.90;;;;;;;;;;6215776;23;20499;-68
2023/04/19 02:54:39;;;;;;;1999.90;999.90;;;;;;;;;;6217707;23;20204;-68
2023/04/19 02:57:24;;;;;;;1999.90;999.90;;;;;;;;;;6216824;23;20169;-70
2023/04/19 03:00:09;;;;;;;1999.90;999.90;;;;;;;;;;6215373;23;20173;-72
2023/04/19 03:02:56;;;;;;;1999.90;999.90;;;;;;;;;;6213750;23;20426;-69
2023/04/19 03:05:41;;;;;;;1999.90;999.90;;;;;;;;;;6215709;23;20167;-71
2023/04/19 03:08:26;;;;;;;1999.90;999.90;;;;;;;;;;6215563;23;20225;-72
2023/04/19 03:11:11;;;;;;;1999.90;999.90;;;;;;;;;;6215333;23;20170;-72
2023/04/19 03:13:56;;;;;;;1999.90;999.90;;;;;;;;;;6214960;23;20280;-72
2023/04/19 03:16:41;;;;;;;1999.90;999.90;;;;;;;;;;6214974;23;20265;-72
2023/04/19 03:19:27;;;;;;;1999.90;999.90;;;;;;;;;;6215134;23;20168;-72
2023/04/19 03:22:12;;;;;;;1999.90;999.90;;;;;;;;;;6215301;23;20169;-72
2023/04/19 03:24:57;;;;;;;1999.90;999.90;;;;;;;;;;6214931;23;20217;-71
2023/04/19 03:27:44;;;;;;;1999.90;999.90;;;;;;;;;;6215194;23;20258;-71
2023/04/19 03:30:28;;;;;;;1999.90;999.90;;;;;;;;;;6215154;23;20221;-71
2023/04/19 03:33:13;;;;;;;1999.90;999.90;;;;;;;;;;6213951;23;20169;-71
2023/04/19 03:35:59;;;;;;;1999.90;999.90;;;;;;;;;;6214781;23;20248;-69
2023/04/19 03:38:45;;;;;;;1999.90;999.90;;;;;;;;;;6212751;23;20461;-71
2023/04/19 03:41:30;;;;;;;1999.90;999.90;;;;;;;;;;6214720;23;20180;-72
2023/04/19 03:44:15;;;;;;;1999.90;999.90;;;;;;;;;;6214604;23;20264;-71
2023/04/19 03:47:00;;;;;;;1999.90;999.90;;;;;;;;;;6214777;23;20552;-69
2023/04/19 03:49:45;;;;;;;1999.90;999.90;;;;;;;;;;6214783;23;20185;-71
2023/04/19 03:52:31;;;;;;;1999.90;999.90;;;;;;;;;;6213252;23;20704;-70
2023/04/19 03:55:16;;;;;;;1999.90;999.90;;;;;;;;;;6214209;23;20205;-71
2023/04/19 03:58:01;;;;;;;1999.90;999.90;;;;;;;;;;6214974;23;20162;-72
2023/04/19 04:00:46;;;;;;;1999.90;999.90;;;;;;;;;;6214661;23;20213;-71
2023/04/19 04:03:31;;;;;;;1999.90;999.90;;;;;;;;;;6214222;23;20250;-71
2023/04/19 04:06:16;;;;;;;1999.90;999.90;;;;;;;;;;6214706;23;20169;-70
2023/04/19 04:09:03;;;;;;;1999.90;999.90;;;;;;;;;;6215356;23;20240;-70
2023/04/19 04:11:49;;;;;;;1999.90;999.90;;;;;;;;;;6214782;23;20170;-72
2023/04/19 04:14:34;;;;;;;1999.90;999.90;;;;;;;;;;6214462;23;20212;-71
2023/04/19 04:17:18;;;;;;;1999.90;999.90;;;;;;;;;;6214729;23;20603;-72
2023/04/19 04:20:07;;;;;;;1999.90;999.90;;;;;;;;;;6214714;23;20622;-71
2023/04/19 04:22:52;;;;;;;1999.90;999.90;;;;;;;;;;6214490;23;20173;-71
2023/04/19 04:25:38;;;;;;;1999.90;999.90;;;;;;;;;;6214665;23;20209;-72
2023/04/19 04:28:23;;;;;;;1999.90;999.90;;;;;;;;;;6212619;23;20459;-71
2023/04/19 04:31:08;;;;;;;1999.90;999.90;;;;;;;;;;6214556;23;20225;-72
2023/04/19 04:33:54;;;;;;;1999.90;999.90;;;;;;;;;;6214344;23;20201;-72
2023/04/19 04:36:41;;;;;;;1999.90;999.90;;;;;;;;;;6214350;23;20189;-72
2023/04/19 04:39:26;;;;;;;1999.90;999.90;;;;;;;;;;6214379;23;20165;-70
2023/04/19 04:42:12;;;;;;;1999.90;999.90;;;;;;;;;;6212010;23;20382;-72
2023/04/19 04:45:00;;;;;;;1999.90;999.90;;;;;;;;;;6213104;23;20208;-71
2023/04/19 04:47:45;;;;;;;1999.90;999.90;;;;;;;;;;6214039;23;20169;-71
2023/04/19 04:50:30;;;;;;;1999.90;999.90;;;;;;;;;;6214162;23;20165;-71
2023/04/19 04:53:15;;;;;;;1999.90;999.90;;;;;;;;;;6214009;23;20284;-71
2023/04/19 04:56:00;;;;;;;1999.90;999.90;;;;;;;;;;6214363;23;20208;-72
2023/04/19 04:58:46;;;;;;;1999.90;999.90;;;;;;;;;;6214831;23;20238;-72
2023/04/19 05:01:31;;;;;;;1999.90;999.90;;;;;;;;;;6213782;23;20169;-72
2023/04/19 05:04:16;;;;;;;1999.90;999.90;;;;;;;;;;6213937;23;20538;-72
2023/04/19 05:07:01;;;;;;;1999.90;999.90;;;;;;;;;;6213806;23;20165;-71
2023/04/19 05:09:46;;;;;;;1999.90;999.90;;;;;;;;;;6213987;23;20250;-72
2023/04/19 05:12:31;;;;;;;1999.90;999.90;;;;;;;;;;6213988;23;20508;-72
2023/04/19 05:15:17;;;;;;;1999.90;999.90;;;;;;;;;;6212672;23;20871;-73
2023/04/19 05:18:02;;;;;;;1999.90;999.90;;;;;;;;;;6213839;23;20166;-73
2023/04/19 05:20:47;;;;;;;1999.90;999.90;;;;;;;;;;6213679;23;20622;-73
2023/04/19 05:23:32;;;;;;;1999.90;999.90;;;;;;;;;;6213538;23;20205;-73
2023/04/19 05:26:18;;;;;;;1999.90;999.90;;;;;;;;;;6212625;23;20633;-73
2023/04/19 05:29:02;;;;;;;1999.90;999.90;;;;;;;;;;6212802;23;20848;-73
2023/04/19 05:31:49;;;;;;;1999.90;999.90;;;;;;;;;;6213283;23;20213;-75
2023/04/19 05:34:34;;;;;;;1999.90;999.90;;;;;;;;;;6213526;23;20222;-73
2023/04/19 05:37:18;;;;;;;1999.90;999.90;;;;;;;;;;6213397;23;20193;-73
2023/04/19 05:40:04;;;;;;;1999.90;999.90;;;;;;;;;;6212756;23;20169;-73
2023/04/19 05:42:49;;;;;;;1999.90;999.90;;;;;;;;;;6213117;23;20175;-72
2023/04/19 05:45:35;;;;;;;1999.90;999.90;;;;;;;;;;6213269;23;20662;-74
2023/04/19 05:48:21;;;;;;;1999.90;999.90;;;;;;;;;;6213197;23;20169;-74
2023/04/19 05:51:06;;;;;;;1999.90;999.90;;;;;;;;;;6212493;23;20170;-73
2023/04/19 05:53:52;;;;;;;1999.90;999.90;;;;;;;;;;6212279;23;20204;-74
2023/04/19 05:56:37;;;;;;;1999.90;999.90;;;;;;;;;;6212457;23;20212;-73
2023/04/19 05:59:22;;;;;;;1999.90;999.90;;;;;;;;;;6213301;23;20166;-73
2023/04/19 06:02:07;;;;;;;1999.90;999.90;;;;;;;;;;6213344;23;20166;-74
2023/04/19 06:04:53;;;;;;;1999.90;999.90;;;;;;;;;;6213534;23;20553;-74
2023/04/19 06:07:38;;;;;;;1999.90;999.90;;;;;;;;;;6213290;23;20181;-73
2023/04/19 06:10:23;;;;;;;1999.90;999.90;;;;;;;;;;6212607;23;20166;-73
2023/04/19 06:13:08;;;;;;;1999.90;999.90;;;;;;;;;;6213386;23;20218;-73
2023/04/19 06:15:53;;;;;;;1999.90;999.90;;;;;;;;;;6213055;23;20195;-73
2023/04/19 06:18:38;;;;;;;1999.90;999.90;;;;;;;;;;6212575;23;20456;-73
2023/04/19 06:21:25;;;;;;;1999.90;999.90;;;;;;;;;;6212862;23;20176;-73
2023/04/19 06:24:10;;;;;;;1999.90;999.90;;;;;;;;;;6213443;23;20334;-72
2023/04/19 06:26:56;;;;;;;1999.90;999.90;;;;;;;;;;6213643;23;20169;-73
2023/04/19 06:29:41;;;;;;;1999.90;999.90;;;;;;;;;;6213378;23;20273;-71
2023/04/19 06:32:26;;;;;;;1999.90;999.90;;;;;;;;;;6213504;23;20165;-72
2023/04/19 06:35:11;;;;;;;1999.90;999.90;;;;;;;;;;6213233;23;20253;-71
2023/04/19 06:37:58;;;;;;;1999.90;999.90;;;;;;;;;;6213195;23;20273;-72
2023/04/19 06:40:43;;;;;;;1999.90;999.90;;;;;;;;;;6213028;23;20169;-72
2023/04/19 06:43:28;;;;;;;1999.90;999.90;;;;;;;;;;6213145;23;20296;-72
2023/04/19 06:46:13;;;;;;;1999.90;999.90;;;;;;;;;;6213518;23;20182;-73
2023/04/19 06:48:58;;;;;;;1999.90;999.90;;;;;;;;;;6213812;23;20252;-72
2023/04/19 06:51:43;;;;;;;1999.90;999.90;;;;;;;;;;6213590;23;20370;-71
2023/04/19 06:54:29;;;;;;;1999.90;999.90;;;;;;;;;;6215262;23;20562;-73
2023/04/19 06:57:15;;;;;;;1999.90;999.90;;;;;;;;;;6215587;23;20527;-73
2023/04/19 06:59:59;;;;;;;1999.90;999.90;;;;;;;;;;6215428;23;20622;-72
2023/04/19 07:02:44;;;;;;;1999.90;999.90;;;;;;;;;;6214633;23;20508;-72
2023/04/19 07:05:30;;;;;;;1999.90;999.90;;;;;;;;;;6215159;23;20221;-72
2023/04/19 07:08:14;;;;;;;1999.90;999.90;;;;;;;;;;6214204;23;20503;-72
2023/04/19 07:11:01;;;;;;;1999.90;999.90;;;;;;;;;;6213666;23;20169;-72
2023/04/19 07:13:46;;;;;;;1999.90;999.90;;;;;;;;;;6212747;23;20212;-72
2023/04/19 07:16:31;;;;;;;1999.90;999.90;;;;;;;;;;6215049;23;20188;-73
2023/04/19 07:19:18;;;;;;;1999.90;999.90;;;;;;;;;;6212439;23;20508;-72
2023/04/19 07:22:03;;;;;;;1999.90;999.90;;;;;;;;;;6215123;23;20511;-72
2023/04/19 07:24:48;;;;;;;1999.90;999.90;;;;;;;;;;6213091;23;20646;-72
2023/04/19 07:27:35;;;;;;;1999.90;999.90;;;;;;;;;;6214970;23;20502;-72
2023/04/19 07:30:20;;;;;;;1999.90;999.90;;;;;;;;;;6214956;23;20241;-72
2023/04/19 07:33:07;;;;;;;1999.90;999.90;;;;;;;;;;6214008;23;20216;-72
2023/04/19 07:35:52;;;;;;;1999.90;999.90;;;;;;;;;;6213550;23;20262;-72
2023/04/19 07:38:37;;;;;;;1999.90;999.90;;;;;;;;;;6214869;23;20505;-71
2023/04/19 07:41:22;;;;;;;1999.90;999.90;;;;;;;;;;6211956;23;20463;-72
2023/04/19 07:44:10;;;;;;;1999.90;999.90;;;;;;;;;;6214057;23;20275;-72
2023/04/19 07:46:55;;;;;;;1999.90;999.90;;;;;;;;;;6214429;23;20258;-72
2023/04/19 07:49:40;;;;;;;1999.90;999.90;;;;;;;;;;6214252;23;20213;-72
2023/04/19 07:52:24;;;;;;;1999.90;999.90;;;;;;;;;;6214451;23;20217;-72
2023/04/19 07:55:09;;;;;;;1999.90;999.90;;;;;;;;;;6212464;23;20385;-72
2023/04/19 07:57:54;;;;;;;1999.90;999.90;;;;;;;;;;6214766;23;20236;-72
2023/04/19 08:00:40;;;;;;;1999.90;999.90;;;;;;;;;;6214736;23;20212;-72
2023/04/19 08:03:25;;;;;;;1999.90;999.90;;;;;;;;;;6214323;23;20209;-72
2023/04/19 08:06:13;;;;;;;1999.90;999.90;;;;;;;;;;6214650;23;20296;-72
2023/04/19 08:08:57;;;;;;;1999.90;999.90;;;;;;;;;;6213057;23;20182;-71
2023/04/19 08:11:42;;;;;;;1999.90;999.90;;;;;;;;;;6213248;23;20165;-72
2023/04/19 08:14:27;;;;;;;1999.90;999.90;;;;;;;;;;6214375;23;20209;-72
2023/04/19 08:17:15;;;;;;;1999.90;999.90;;;;;;;;;;6212881;23;20209;-73
2023/04/19 08:20:00;;;;;;;1999.90;999.90;;;;;;;;;;6214402;23;20208;-72
2023/04/19 08:22:45;;;;;;;1999.90;999.90;;;;;;;;;;6214742;23;20181;-72
2023/04/19 08:25:30;;;;;;;1999.90;999.90;;;;;;;;;;6214597;23;20166;-72
2023/04/19 08:28:15;;;;;;;1999.90;999.90;;;;;;;;;;6214143;23;20382;-72
2023/04/19 08:31:00;;;;;;;1999.90;999.90;;;;;;;;;;6214515;23;20364;-72
2023/04/19 08:33:46;;;;;;;1999.90;999.90;;;;;;;;;;6214215;23;20320;-72
2023/04/19 08:36:31;;;;;;;1999.90;999.90;;;;;;;;;;6214450;23;20190;-72
2023/04/19 08:39:16;;;;;;;1999.90;999.90;;;;;;;;;;6214480;23;20169;-72
2023/04/19 08:42:03;;;;;;;1999.90;999.90;;;;;;;;;;6213215;23;20883;-72
2023/04/19 08:44:48;;;;;;;1999.90;999.90;;;;;;;;;;6214654;23;20201;-72
2023/04/19 08:47:34;;;;;;;1999.90;999.90;;;;;;;;;;6214777;23;20166;-72
2023/04/19 08:50:21;;;;;;;1999.90;999.90;;;;;;;;;;6214574;23;20169;-72
2023/04/19 08:53:07;;;;;;;1999.90;999.90;;;;;;;;;;6214065;23;20250;-72
2023/04/19 08:55:57;;;;;;;1999.90;999.90;;;;;;;;;;6214418;23;20170;-72
2023/04/19 08:58:42;;;;;;;1999.90;999.90;;;;;;;;;;6214350;23;20614;-72
2023/04/19 09:01:27;;;;;;;1999.90;999.90;;;;;;;;;;6214839;23;20228;-72
2023/04/19 09:04:11;;;;;;;1999.90;999.90;;;;;;;;;;6213946;23;20208;-72
2023/04/19 09:06:58;;;;;;;1999.90;999.90;;;;;;;;;;6214287;23;20289;-72
2023/04/19 09:09:43;;;;;;;1999.90;999.90;;;;;;;;;;6214041;23;20264;-72
2023/04/19 09:12:27;;;;;;;1999.90;999.90;;;;;;;;;;6214179;23;20184;-72
2023/04/19 09:15:12;;;;;;;1999.90;999.90;;;;;;;;;;6212067;23;20467;-72
2023/04/19 09:18:03;;;;;;;1999.90;999.90;;;;;;;;;;6212845;23;20199;-73
2023/04/19 09:20:48;;;;;;;1999.90;999.90;;;;;;;;;;6213949;23;20170;-73
2023/04/19 09:23:46;;;;;;;1999.90;999.90;;;;;;;;;;6213725;23;20204;-72
2023/04/19 09:26:31;;;;;;;1999.90;999.90;;;;;;;;;;6212900;23;20169;-73
2023/04/19 09:29:16;;;;;;;1999.90;999.90;;;;;;;;;;6213346;23;20394;-73
2023/04/19 09:32:01;;;;;;;1999.90;999.90;;;;;;;;;;6214043;23;20370;-74
2023/04/19 09:34:50;;;;;;;1999.90;999.90;;;;;;;;;;6213521;23;20212;-73
2023/04/19 09:37:38;;;;;;;1999.90;999.90;;;;;;;;;;6213716;23;20535;-72
2023/04/19 09:40:26;;;;;;;1999.90;999.90;;;;;;;;;;6213844;23;20169;-73
2023/04/19 09:43:11;;;;;;;1999.90;999.90;;;;;;;;;;6213598;23;20172;-73
2023/04/19 09:45:56;;;;;;;1999.90;999.90;;;;;;;;;;6213933;23;20216;-73
2023/04/19 09:48:40;;;;;;;1999.90;999.90;;;;;;;;;;6213826;23;20208;-73
2023/04/19 09:51:39;;;;;;;1999.90;999.90;;;;;;;;;;6213857;23;20168;-73
2023/04/19 09:54:26;;;;;;;1999.90;999.90;;;;;;;;;;6213580;23;20252;-73
2023/04/19 09:57:12;;;;;;;1999.90;999.90;;;;;;;;;;6213933;23;20653;-73
2023/04/19 09:59:58;;;;;;;1999.90;999.90;;;;;;;;;;6213933;23;20172;-72
2023/04/19 10:02:46;;;;;;;1999.90;999.90;;;;;;;;;;6213961;23;20251;-73
2023/04/19 10:05:31;;;;;;;1999.90;999.90;;;;;;;;;;6214002;23;20172;-72
2023/04/19 10:08:17;;;;;;;1999.90;999.90;;;;;;;;;;6212634;23;20276;-72
2023/04/19 10:11:01;;;;;;;1999.90;999.90;;;;;;;;;;6213694;23;20172;-73
2023/04/19 10:13:48;;;;;;;1999.90;999.90;;;;;;;;;;6213012;23;20227;-73
2023/04/19 10:16:34;;;;;;;1999.90;999.90;;;;;;;;;;6213440;23;20173;-73
2023/04/19 10:19:20;;;;;;;1999.90;999.90;;;;;;;;;;6212756;23;20391;-72
2023/04/19 10:22:05;;;;;;;1999.90;999.90;;;;;;;;;;6212372;23;20179;-73
2023/04/19 10:25:07;;;;;;;1999.90;999.90;;;;;;;;;;6212775;23;20541;-74
2023/04/19 10:27:52;;;;;;;1999.90;999.90;;;;;;;;;;6213848;23;20223;-73
2023/04/19 10:30:52;;;;;;;1999.90;999.90;;;;;;;;;;6214944;23;20169;-73
2023/04/19 10:33:37;;;;;;;1999.90;999.90;;;;;;;;;;6214073;23;20205;-72
2023/04/19 10:36:26;;;;;;;1999.90;999.90;;;;;;;;;;6214430;23;20518;-72
2023/04/19 10:39:38;;;;;;;1999.90;999.90;;;;;;;;;;6214732;23;20196;-72
2023/04/19 10:42:23;;;;;;;1999.90;999.90;;;;;;;;;;6215293;23;20217;-73
2023/04/19 10:45:27;;;;;;;1999.90;999.90;;;;;;;;;;6215402;23;20252;-72
2023/04/19 10:48:32;;;;;;;1999.90;999.90;;;;;;;;;;6214558;23;20261;-72
2023/04/19 10:51:19;;;;;;;1999.90;999.90;;;;;;;;;;6215413;23;20520;-72
2023/04/19 10:54:04;;;;;;;1999.90;999.90;;;;;;;;;;6215254;23;20252;-71
2023/04/19 10:57:00;;;;;;;1999.90;999.90;;;;;;;;;;6214868;23;20165;-73
2023/04/19 11:00:06;;;;;;;1999.90;999.90;;;;;;;;;;6215475;23;20205;-73
2023/04/19 11:02:52;;;;;;;1999.90;999.90;;;;;;;;;;6215160;23;20716;-70
2023/04/19 11:05:52;;;;;;;1999.90;999.90;;;;;;;;;;6214741;23;20253;-71
2023/04/19 11:08:42;;;;;;;1999.90;999.90;;;;;;;;;;6215365;23;20168;-71
2023/04/19 11:11:27;;;;;;;1999.90;999.90;;;;;;;;;;6215374;23;20173;-71
2023/04/19 11:14:12;;;;;;;1999.90;999.90;;;;;;;;;;6214539;23;20313;-71
2023/04/19 11:16:56;;;;;;;1999.90;999.90;;;;;;;;;;6214579;23;20169;-71
2023/04/19 11:19:44;;;;;;;1999.90;999.90;;;;;;;;;;6214878;23;20233;-71
2023/04/19 11:22:33;;;;;;;1999.90;999.90;;;;;;;;;;6213321;23;20172;-71
2023/04/19 11:25:18;;;;;;;1999.90;999.90;;;;;;;;;;6212365;23;20550;-71
2023/04/19 11:28:03;;;;;;;1999.90;999.90;;;;;;;;;;6213323;23;20550;-72
2023/04/19 11:30:49;;;;;;;1999.90;999.90;;;;;;;;;;6212804;23;20725;-72
2023/04/19 11:33:34;;;;;;;1999.90;999.90;;;;;;;;;;6211896;23;20223;-72
2023/04/19 11:36:21;;;;;;;1999.90;999.90;;;;;;;;;;6213409;23;20807;-71
2023/04/19 11:39:06;;;;;;;1999.90;999.90;;;;;;;;;;6212811;23;20193;-72
2023/04/19 11:41:50;;;;;;;1999.90;999.90;;;;;;;;;;6213153;23;20170;-72
2023/04/19 11:44:36;;;;;;;1999.90;999.90;;;;;;;;;;6212970;23;20316;-72
2023/04/19 11:47:22;;;;;;;1999.90;999.90;;;;;;;;;;6211256;23;20361;-72
2023/04/19 11:50:28;;;;;;;1999.90;999.90;;;;;;;;;;6211413;23;20725;-72
2023/04/19 11:53:15;;;;;;;1999.90;999.90;;;;;;;;;;6211969;23;20184;-71
2023/04/19 11:56:04;;;;;;;1999.90;999.90;;;;;;;;;;6211881;23;20641;-72
2023/04/19 11:58:49;;;;;;;1999.90;999.90;;;;;;;;;;6211843;23;20236;-72
2023/04/19 12:01:34;;;;;;;1999.90;999.90;;;;;;;;;;6211961;23;20870;-72
2023/04/19 12:04:19;;;;;;;1999.90;999.90;;;;;;;;;;6211077;23;20730;-72
2023/04/19 12:07:05;;;;;;;1999.90;999.90;;;;;;;;;;6211905;23;20360;-72
2023/04/19 12:09:53;;;;;;;1999.90;999.90;;;;;;;;;;6211994;23;20264;-72
2023/04/19 12:12:38;;;;;;;1999.90;999.90;;;;;;;;;;6212563;23;20233;-72
2023/04/19 12:15:23;;;;;;;1999.90;999.90;;;;;;;;;;6212591;23;20192;-72
2023/04/19 12:18:08;;;;;;;1999.90;999.90;;;;;;;;;;6212603;23;20193;-71
2023/04/19 12:20:53;;;;;;;1999.90;999.90;;;;;;;;;;6212423;23;20182;-71
2023/04/19 12:23:38;;;;;;;1999.90;999.90;;;;;;;;;;6211272;23;20386;-72
2023/04/19 12:26:25;;;;;;;1999.90;999.90;;;;;;;;;;6212533;23;20169;-72
2023/04/19 12:29:11;;;;;;;1999.90;999.90;;;;;;;;;;6212490;23;20245;-72
2023/04/19 12:31:55;;;;;;;1999.90;999.90;;;;;;;;;;6212592;23;20209;-72
2023/04/19 12:34:40;;;;;;;1999.90;999.90;;;;;;;;;;6212174;23;20205;-73
2023/04/19 12:37:26;;;;;;;1999.90;999.90;;;;;;;;;;6211101;23;20382;-72
2023/04/19 12:40:11;;;;;;;1999.90;999.90;;;;;;;;;;6213030;23;20173;-71
2023/04/19 12:42:58;;;;;;;1999.90;999.90;;;;;;;;;;6213098;23;20308;-71
2023/04/19 12:45:43;;;;;;;1999.90;999.90;;;;;;;;;;6211966;23;20165;-73
2023/04/19 12:48:28;;;;;;;1999.90;999.90;;;;;;;;;;6212795;23;20165;-73
2023/04/19 12:51:13;;;;;;;1999.90;999.90;;;;;;;;;;6211920;23;20170;-74
2023/04/19 12:53:58;;;;;;;1999.90;999.90;;;;;;;;;;6212084;23;20267;-73
2023/04/19 12:56:43;;;;;;;1999.90;999.90;;;;;;;;;;6212394;23;20174;-71
2023/04/19 12:59:29;;;;;;;1999.90;999.90;;;;;;;;;;6212596;23;20631;-74
2023/04/19 13:02:15;;;;;;;1999.90;999.90;;;;;;;;;;6212358;23;20173;-73
2023/04/19 13:04:59;;;;;;;1999.90;999.90;;;;;;;;;;6211797;23;20205;-72
2023/04/19 13:07:44;;;;;;;1999.90;999.90;;;;;;;;;;6210593;23;20201;-72
2023/04/19 13:10:29;;;;;;;1999.90;999.90;;;;;;;;;;6211073;23;20511;-73
2023/04/19 13:13:15;;;;;;;1999.90;999.90;;;;;;;;;;6211514;23;20168;-73
2023/04/19 13:16:01;;;;;;;1999.90;999.90;;;;;;;;;;6211671;23;20173;-73
2023/04/19 13:18:46;;;;;;;1999.90;999.90;;;;;;;;;;6210698;23;20190;-74
2023/04/19 13:21:31;;;;;;;1999.90;999.90;;;;;;;;;;6211396;23;20703;-72
2023/04/19 13:24:16;;;;;;;1999.90;999.90;;;;;;;;;;6210769;23;20383;-72
2023/04/19 13:27:01;;;;;;;1999.90;999.90;;;;;;;;;;6211801;23;20172;-74
2023/04/19 13:29:46;;;;;;;1999.90;999.90;;;;;;;;;;6211391;23;20161;-73
2023/04/19 13:32:33;;;;;;;1999.90;999.90;;;;;;;;;;6211447;23;20185;-72
2023/04/19 13:35:18;;;;;;;1999.90;999.90;;;;;;;;;;6211558;23;20600;-72
2023/04/19 13:38:03;;;;;;;1999.90;999.90;;;;;;;;;;6210889;23;20253;-72
2023/04/19 13:40:48;;;;;;;1999.90;999.90;;;;;;;;;;6212071;23;20293;-72
2023/04/19 13:43:32;;;;;;;1999.90;999.90;;;;;;;;;;6211582;23;20205;-73
2023/04/19 13:46:17;;;;;;;1999.90;999.90;;;;;;;;;;6210905;23;20244;-72
2023/04/19 13:49:03;;;;;;;1999.90;999.90;;;;;;;;;;6210469;23;20165;-72
2023/04/19 13:51:48;;;;;;;1999.90;999.90;;;;;;;;;;6211204;23;20169;-71
2023/04/19 13:54:33;;;;;;;1999.90;999.90;;;;;;;;;;6211016;23;20204;-71
2023/04/19 13:57:18;;;;;;;1999.90;999.90;;;;;;;;;;6211475;23;20173;-72
2023/04/19 14:00:04;;;;;;;1999.90;999.90;;;;;;;;;;6210354;23;20174;-71
2023/04/19 14:02:49;;;;;;;1999.90;999.90;;;;;;;;;;6211414;23;20626;-72
2023/04/19 14:05:35;;;;;;;1999.90;999.90;;;;;;;;;;6210965;23;20178;-71
2023/04/19 14:08:20;;;;;;;1999.90;999.90;;;;;;;;;;6210735;23;20181;-72
2023/04/19 14:11:05;;;;;;;1999.90;999.90;;;;;;;;;;6209898;23;20375;-72
2023/04/19 14:13:51;;;;;;;1999.90;999.90;;;;;;;;;;6211408;23;20209;-72
2023/04/19 14:16:36;;;;;;;1999.90;999.90;;;;;;;;;;6211735;23;20170;-72
2023/04/19 14:19:20;;;;;;;1999.90;999.90;;;;;;;;;;6211677;23;20515;-72
2023/04/19 14:22:06;;;;;;;1999.90;999.90;;;;;;;;;;6211205;23;20625;-72
2023/04/19 14:24:51;;;;;;;1999.90;999.90;;;;;;;;;;6211426;23;20579;-72
2023/04/19 14:27:37;;;;;;;1999.90;999.90;;;;;;;;;;6211687;23;20761;-71
2023/04/19 14:30:24;;;;;;;1999.90;999.90;;;;;;;;;;6210437;23;20281;-72
2023/04/19 14:33:10;;;;;;;1999.90;999.90;;;;;;;;;;6211623;23;20246;-72
2023/04/19 14:35:55;;;;;;;1999.90;999.90;;;;;;;;;;6211920;23;20501;-72
2023/04/19 14:38:41;;;;;;;1999.90;999.90;;;;;;;;;;6211650;23;20194;-70
2023/04/19 14:41:26;;;;;;;1999.90;999.90;;;;;;;;;;6211413;23;20166;-72
2023/04/19 14:44:11;;;;;;;1999.90;999.90;;;;;;;;;;6210404;23;20377;-73
2023/04/19 14:46:55;;;;;;;1999.90;999.90;;;;;;;;;;6211483;23;20173;-73
2023/04/19 14:49:41;;;;;;;1999.90;999.90;;;;;;;;;;6211324;23;20236;-72
2023/04/19 14:52:26;;;;;;;1999.90;999.90;;;;;;;;;;6211093;23;20250;-73
2023/04/19 14:55:12;;;;;;;1999.90;999.90;;;;;;;;;;6211467;23;20284;-73
2023/04/19 14:57:57;;;;;;;1999.90;999.90;;;;;;;;;;6210462;23;20386;-71
2023/04/19 15:00:42;;;;;;;1999.90;999.90;;;;;;;;;;6210700;23;20217;-73
2023/04/19 15:03:27;;;;;;;1999.90;999.90;;;;;;;;;;6210379;23;20536;-74
2023/04/19 15:06:12;;;;;;;1999.90;999.90;;;;;;;;;;6210865;23;20247;-74
2023/04/19 15:08:57;;;;;;;1999.90;999.90;;;;;;;;;;6211328;23;20249;-74
2023/04/19 15:11:43;;;;;;;1999.90;999.90;;;;;;;;;;6210609;23;20220;-73
2023/04/19 15:14:28;;;;;;;1999.90;999.90;;;;;;;;;;6212157;23;20213;-74
2023/04/19 15:17:13;;;;;;;1999.90;999.90;;;;;;;;;;6213567;23;20240;-74
2023/04/19 15:19:58;;;;;;;1999.90;999.90;;;;;;;;;;6212291;23;20198;-74
2023/04/19 15:22:43;;;;;;;1999.90;999.90;;;;;;;;;;6213141;23;20557;-71
2023/04/19 15:25:28;;;;;;;1999.90;999.90;;;;;;;;;;6213344;23;20169;-73
2023/04/19 15:28:14;;;;;;;1999.90;999.90;;;;;;;;;;6213654;23;20626;-74
2023/04/19 15:31:00;;;;;;;1999.90;999.90;;;;;;;;;;6213414;23;20228;-72
2023/04/19 15:33:45;;;;;;;1999.90;999.90;;;;;;;;;;6213158;23;20732;-72
2023/04/19 15:36:31;;;;;;;1999.90;999.90;;;;;;;;;;6213107;23;20177;-71
2023/04/19 15:39:16;;;;;;;1999.90;999.90;;;;;;;;;;6212668;23;20209;-74
2023/04/19 15:42:02;;;;;;;1999.90;999.90;;;;;;;;;;6213706;23;20213;-73
2023/04/19 15:44:48;;;;;;;1999.90;999.90;;;;;;;;;;6211223;23;20955;-73
2023/04/19 15:47:33;;;;;;;1999.90;999.90;;;;;;;;;;6213566;23;20169;-72
2023/04/19 15:50:18;;;;;;;1999.90;999.90;;;;;;;;;;6213189;23;20543;-72
2023/04/19 15:53:03;;;;;;;1999.90;999.90;;;;;;;;;;6212514;23;20168;-74
2023/04/19 15:55:48;;;;;;;1999.90;999.90;;;;;;;;;;6213302;23;20170;-71
2023/04/19 15:58:33;;;;;;;1999.90;999.90;;;;;;;;;;6213195;23;20200;-74
2023/04/19 16:01:21;;;;;;;1999.90;999.90;;;;;;;;;;6212771;23;20169;-72
2023/04/19 16:04:06;;;;;;;1999.90;999.90;;;;;;;;;;6212025;23;20287;-71
2023/04/19 16:06:51;;;;;;;1999.90;999.90;;;;;;;;;;6211893;23;20170;-73
2023/04/19 16:09:36;;;;;;;1999.90;999.90;;;;;;;;;;6212783;23;20169;-72
2023/04/19 16:12:21;;;;;;;1999.90;999.90;;;;;;;;;;6212353;23;20296;-73
2023/04/19 16:15:07;;;;;;;1999.90;999.90;;;;;;;;;;6211520;23;20230;-73
2023/04/19 16:17:54;;;;;;;1999.90;999.90;;;;;;;;;;6211331;23;20173;-72
2023/04/19 16:20:39;;;;;;;1999.90;999.90;;;;;;;;;;6212278;23;20193;-73
2023/04/19 16:23:24;;;;;;;1999.90;999.90;;;;;;;;;;6211780;23;20204;-74
2023/04/19 16:26:09;;;;;;;1999.90;999.90;;;;;;;;;;6212674;23;20252;-72
2023/04/19 16:28:54;;;;;;;1999.90;999.90;;;;;;;;;;6212524;23;20205;-73
2023/04/19 16:31:39;;;;;;;1999.90;999.90;;;;;;;;;;6211863;23;20242;-72
2023/04/19 16:34:25;;;;;;;1999.90;999.90;;;;;;;;;;6211677;23;20291;-74
2023/04/19 16:37:10;;;;;;;1999.90;999.90;;;;;;;;;;6211970;23;20169;-73
2023/04/19 16:39:55;;;;;;;1999.90;999.90;;;;;;;;;;6212092;23;20196;-74
2023/04/19 16:42:40;;;;;;;1999.90;999.90;;;;;;;;;;6212627;23;20172;-73
2023/04/19 16:45:25;;;;;;;1999.90;999.90;;;;;;;;;;6211785;23;20228;-73
2023/04/19 16:48:10;;;;;;;1999.90;999.90;;;;;;;;;;6212549;23;20169;-73
2023/04/19 16:50:56;;;;;;;1999.90;999.90;;;;;;;;;;6211290;23;20177;-72
2023/04/19 16:53:42;;;;;;;1999.90;999.90;;;;;;;;;;6211699;23;20202;-74
2023/04/19 16:56:27;;;;;;;1999.90;999.90;;;;;;;;;;6211918;23;20170;-73
2023/04/19 16:59:12;;;;;;;1999.90;999.90;;;;;;;;;;6212147;23;20574;-73
2023/04/19 17:01:57;;;;;;;1999.90;999.90;;;;;;;;;;6210641;23;20906;-72
2023/04/19 17:04:41;;;;;;;1999.90;999.90;;;;;;;;;;6211661;23;20263;-74
2023/04/19 17:07:28;;;;;;;1999.90;999.90;;;;;;;;;;6212167;23;20169;-73
2023/04/19 17:10:13;;;;;;;1999.90;999.90;;;;;;;;;;6211780;23;20170;-73
2023/04/19 17:12:58;;;;;;;1999.90;999.90;;;;;;;;;;6211902;23;20173;-71
2023/04/19 17:15:43;;;;;;;1999.90;999.90;;;;;;;;;;6210340;23;20387;-73
2023/04/19 17:18:28;;;;;;;1999.90;999.90;;;;;;;;;;6211778;23;20363;-74
2023/04/19 17:21:14;;;;;;;1999.90;999.90;;;;;;;;;;6211703;23;20760;-72
2023/04/19 17:24:01;;;;;;;1999.90;999.90;;;;;;;;;;6211986;23;20205;-72
2023/04/19 17:26:45;;;;;;;1999.90;999.90;;;;;;;;;;6211805;23;20229;-73
2023/04/19 17:29:30;;;;;;;1999.90;999.90;;;;;;;;;;6211190;23;20165;-73
2023/04/19 17:32:15;;;;;;;1999.90;999.90;;;;;;;;;;6211883;23;20170;-73
2023/04/19 17:35:00;;;;;;;1999.90;999.90;;;;;;;;;;6211000;23;20276;-74
2023/04/19 17:37:45;;;;;;;1999.90;999.90;;;;;;;;;;6211843;23;20173;-73